createdAt,value
2023-04-28T00:00:58.391Z,68.04
2023-04-28T00:03:28.540Z,67.97
2023-04-28T00:05:57.771Z,68.52
2023-04-28T00:08:27.380Z,69.08
2023-04-28T00:10:55.557Z,68.43
2023-04-28T00:13:23.718Z,67.56
2023-04-28T00:15:55.778Z,68.31
2023-04-28T00:18:24.188Z,68.62
2023-04-28T00:20:53.064Z,69.00
2023-04-28T00:23:21.826Z,68.77
2023-04-28T00:25:53.674Z,68.46
2023-04-28T00:28:33.545Z,68.80
2023-04-28T00:31:02.575Z,69.58
2023-04-28T00:33:31.237Z,69.90
2023-04-28T00:36:00.856Z,70.24
2023-04-28T00:38:29.574Z,69.72
2023-04-28T00:40:58.343Z,69.72
2023-04-28T00:43:27.055Z,70.13
2023-04-28T00:45:55.697Z,71.20
2023-04-28T00:48:24.746Z,71.18
2023-04-28T00:50:52.865Z,71.33
2023-04-28T00:53:21.600Z,72.24
2023-04-28T00:55:54.283Z,71.87
2023-04-28T00:58:23.034Z,72.57
2023-04-28T01:00:51.771Z,73.15
2023-04-28T01:03:20.438Z,72.21
2023-04-28T01:05:49.423Z,72.39
2023-04-28T01:08:23.335Z,72.29
2023-04-28T01:10:51.675Z,71.92
2023-04-28T01:13:21.576Z,71.89
2023-04-28T01:15:50.493Z,71.52
2023-04-28T01:18:19.100Z,70.56
2023-04-28T01:20:47.671Z,71.31
2023-04-28T01:23:17.253Z,69.60
2023-04-28T01:25:45.823Z,69.44
2023-04-28T01:28:14.582Z,69.86
2023-04-28T01:30:42.754Z,70.22
2023-04-28T01:33:10.972Z,71.39
2023-04-28T01:35:39.440Z,72.12
2023-04-28T01:38:07.946Z,72.85
2023-04-28T01:40:36.364Z,73.55
2023-04-28T01:43:04.748Z,73.58
2023-04-28T01:45:33.116Z,74.77
2023-04-28T01:48:01.430Z,77.04
2023-04-28T01:50:30.157Z,77.21
2023-04-28T01:52:58.571Z,77.61
2023-04-28T01:55:27.574Z,77.54
2023-04-28T01:57:58.457Z,76.74
2023-04-28T02:00:27.608Z,77.47
2023-04-28T02:02:56.553Z,78.65
2023-04-28T02:05:25.870Z,78.41
2023-04-28T02:07:54.109Z,79.00
2023-04-28T02:10:22.536Z,79.51
2023-04-28T02:12:50.975Z,79.62
2023-04-28T02:15:19.673Z,79.85
2023-04-28T02:17:48.463Z,79.53
2023-04-28T02:20:16.987Z,79.27
2023-04-28T02:22:46.237Z,79.15
2023-04-28T02:25:14.400Z,77.65
2023-04-28T02:27:42.715Z,77.39
2023-04-28T02:30:11.684Z,75.71
2023-04-28T02:32:40.147Z,76.05
2023-04-28T02:35:08.514Z,78.56
2023-04-28T02:37:37.031Z,78.70
2023-04-28T02:40:05.873Z,77.62
2023-04-28T02:42:34.319Z,78.09
2023-04-28T02:45:03.093Z,78.39
2023-04-28T02:47:31.348Z,78.11
2023-04-28T02:49:59.598Z,79.01
2023-04-28T02:52:28.595Z,77.97
2023-04-28T02:54:57.767Z,78.85
2023-04-28T02:57:26.889Z,79.03
2023-04-28T02:59:55.836Z,78.66
2023-04-28T03:02:25.102Z,78.63
2023-04-28T03:04:53.370Z,78.99
2023-04-28T03:07:22.188Z,79.02
2023-04-28T03:09:50.538Z,79.81
2023-04-28T03:12:18.609Z,79.83
2023-04-28T03:14:47.988Z,79.15
2023-04-28T03:17:17.299Z,78.40
2023-04-28T03:19:45.895Z,78.55
2023-04-28T03:22:18.920Z,78.67
2023-04-28T03:24:47.982Z,77.60
2023-04-28T03:27:17.501Z,78.91
2023-04-28T03:29:45.837Z,77.59
2023-04-28T03:32:14.181Z,77.55
2023-04-28T03:34:42.820Z,79.58
2023-04-28T03:37:11.380Z,79.39
2023-04-28T03:39:40.510Z,77.82
2023-04-28T03:42:09.026Z,78.08
2023-04-28T03:44:42.486Z,79.34
2023-04-28T03:47:11.170Z,78.76
2023-04-28T03:49:39.766Z,79.06
2023-04-28T03:52:08.519Z,79.19
2023-04-28T03:54:37.031Z,78.21
2023-04-28T03:57:05.241Z,76.80
2023-04-28T03:59:34.058Z,77.84
2023-04-28T04:02:02.647Z,77.39
2023-04-28T04:04:31.761Z,77.40
2023-04-28T04:07:00.618Z,77.01
2023-04-28T04:09:29.044Z,76.63
2023-04-28T04:11:58.820Z,78.97
2023-04-28T04:14:27.069Z,79.69
2023-04-28T04:16:55.641Z,78.38
2023-04-28T04:19:26.487Z,78.12
2023-04-28T04:21:55.395Z,78.96
2023-04-28T04:24:24.656Z,80.32
2023-04-28T04:26:52.962Z,80.22
2023-04-28T04:29:22.712Z,80.40
2023-04-28T04:31:51.372Z,79.95
2023-04-28T04:34:19.524Z,78.78
2023-04-28T04:36:47.757Z,80.15
2023-04-28T04:39:16.248Z,80.71
2023-04-28T04:41:44.510Z,80.04
2023-04-28T04:44:14.363Z,78.20
2023-04-28T04:46:44.051Z,78.81
2023-04-28T04:49:12.333Z,77.83
2023-04-28T04:51:40.845Z,76.95
2023-04-28T04:54:09.660Z,76.87
2023-04-28T04:56:38.575Z,76.87
2023-04-28T04:59:07.367Z,76.22
2023-04-28T05:01:37.047Z,75.43
2023-04-28T05:04:05.782Z,74.67
2023-04-28T05:06:34.658Z,73.50
2023-04-28T05:09:03.388Z,72.16
2023-04-28T05:11:33.944Z,71.34
2023-04-28T05:14:02.434Z,71.81
2023-04-28T05:16:31.004Z,72.22
2023-04-28T05:18:59.614Z,71.06
2023-04-28T05:21:28.795Z,70.02
2023-04-28T05:23:57.490Z,71.05
2023-04-28T05:26:26.233Z,71.76
2023-04-28T05:28:55.167Z,72.74
2023-04-28T05:31:23.488Z,72.40
2023-04-28T05:33:52.656Z,74.30
2023-04-28T05:36:21.200Z,75.06
2023-04-28T05:38:49.867Z,76.72
2023-04-28T05:41:18.009Z,78.09
2023-04-28T05:43:47.995Z,78.19
2023-04-28T05:46:29.146Z,79.10
2023-04-28T05:48:59.136Z,77.21
2023-04-28T05:51:28.043Z,75.84
2023-04-28T05:53:56.737Z,75.98
2023-04-28T05:56:25.970Z,74.79
2023-04-28T05:58:54.544Z,75.44
2023-04-28T06:01:24.714Z,71.26
2023-04-28T06:03:54.146Z,71.46
2023-04-28T06:06:22.764Z,69.93
2023-04-28T06:08:51.123Z,67.86
2023-04-28T06:11:22.770Z,70.53
2023-04-28T06:13:51.647Z,67.04
2023-04-28T06:16:20.241Z,66.77
2023-04-28T06:18:49.812Z,67.74
2023-04-28T06:21:21.432Z,68.37
2023-04-28T06:23:50.737Z,65.97
2023-04-28T06:26:19.143Z,66.19
2023-04-28T06:28:47.812Z,64.63
2023-04-28T06:31:17.020Z,64.67
2023-04-28T06:33:46.313Z,63.75
2023-04-28T06:36:16.875Z,63.51
2023-04-28T06:38:46.558Z,63.32
2023-04-28T06:41:14.796Z,62.64
2023-04-28T06:43:43.685Z,58.67
2023-04-28T06:46:12.298Z,61.35
2023-04-28T06:48:40.631Z,59.78
2023-04-28T06:51:08.947Z,56.84
2023-04-28T06:53:37.790Z,55.72
2023-04-28T06:56:11.242Z,55.69
2023-04-28T06:58:40.250Z,54.96
2023-04-28T07:01:08.406Z,56.98
2023-04-28T07:03:37.206Z,54.18
2023-04-28T07:06:06.604Z,53.72
2023-04-28T07:08:36.895Z,55.82
2023-04-28T07:11:06.331Z,56.29
2023-04-28T07:13:34.795Z,54.42
2023-04-28T07:16:03.973Z,54.98
2023-04-28T07:18:32.380Z,51.99
2023-04-28T07:21:01.489Z,51.93
2023-04-28T07:23:31.016Z,52.06
2023-04-28T07:25:59.494Z,52.37
2023-04-28T07:28:28.438Z,51.37
2023-04-28T07:30:57.590Z,51.66
2023-04-28T07:33:26.173Z,50.41
2023-04-28T07:35:54.554Z,50.64
2023-04-28T07:38:22.744Z,47.87
2023-04-28T07:43:20.716Z,50.06
2023-04-28T07:45:49.742Z,49.56
2023-04-28T07:48:18.480Z,47.94
2023-04-28T07:50:46.866Z,50.81
2023-04-28T07:53:14.911Z,48.26
2023-04-28T07:55:44.832Z,48.70
2023-04-28T07:58:13.315Z,47.59
2023-04-28T08:00:41.557Z,50.64
2023-04-28T08:03:10.084Z,48.49
2023-04-28T08:05:39.720Z,46.86
2023-04-28T08:08:07.925Z,47.09
2023-04-28T08:10:36.546Z,47.51
2023-04-28T08:13:04.642Z,46.82
2023-04-28T08:15:32.894Z,47.72
2023-04-28T08:18:01.596Z,46.09
2023-04-28T08:20:30.565Z,47.27
2023-04-28T08:22:59.123Z,47.80
2023-04-28T08:25:27.714Z,47.07
2023-04-28T08:27:57.535Z,45.26
2023-04-28T08:30:25.922Z,44.38
2023-04-28T08:32:54.505Z,42.94
2023-04-28T08:35:22.677Z,43.71
2023-04-28T08:37:52.789Z,42.89
2023-04-28T08:40:22.013Z,42.76
2023-04-28T08:42:50.819Z,41.70
2023-04-28T08:45:19.025Z,40.56
2023-04-28T08:47:49.868Z,41.39
2023-04-28T08:50:23.443Z,40.40
2023-04-28T08:52:52.472Z,41.58
2023-04-28T08:55:21.109Z,38.96
2023-04-28T08:57:54.774Z,40.26
2023-04-28T09:00:24.863Z,36.06
2023-04-28T09:02:53.207Z,37.03
2023-04-28T09:05:22.145Z,36.50
2023-04-28T09:07:52.146Z,38.59
2023-04-28T09:10:23.075Z,36.77
2023-04-28T09:12:56.109Z,32.71
2023-04-28T09:15:42.577Z,33.12
2023-04-28T09:18:14.948Z,34.36
2023-04-28T09:20:44.662Z,33.61
2023-04-28T09:23:18.860Z,32.31
2023-04-28T09:26:03.586Z,33.72
2023-04-28T09:28:36.420Z,34.71
2023-04-28T09:31:04.532Z,36.04
2023-04-28T09:33:33.175Z,35.91
2023-04-28T09:36:01.562Z,37.66
2023-04-28T09:38:29.680Z,37.00
2023-04-28T09:41:03.198Z,35.37
2023-04-28T09:43:33.645Z,34.10
2023-04-28T09:46:04.565Z,37.38
2023-04-28T09:48:36.657Z,34.75
2023-04-28T09:51:07.896Z,34.51
2023-04-28T09:53:36.159Z,34.58
2023-04-28T09:56:08.329Z,34.38
2023-04-28T09:58:40.382Z,34.89
2023-04-28T10:01:11.976Z,34.87
2023-04-28T10:03:41.660Z,34.81
2023-04-28T10:06:10.675Z,34.55
2023-04-28T10:08:40.259Z,34.83
2023-04-28T10:11:09.980Z,34.03
2023-04-28T10:13:38.441Z,36.29
2023-04-28T10:16:08.161Z,35.27
2023-04-28T10:18:37.900Z,34.00
2023-04-28T10:21:07.476Z,34.38
2023-04-28T10:24:04.232Z,33.98
2023-04-28T10:26:56.704Z,32.36
2023-04-28T10:29:26.454Z,34.15
2023-04-28T10:32:26.548Z,34.31
2023-04-28T10:35:33.106Z,33.06
2023-04-28T10:38:18.273Z,34.77
2023-04-28T10:40:48.555Z,33.49
2023-04-28T10:43:27.363Z,34.97
2023-04-28T10:46:01.735Z,34.26
2023-04-28T10:48:31.072Z,34.44
2023-04-28T10:51:09.720Z,34.06
2023-04-28T10:53:44.519Z,37.14
2023-04-28T10:56:18.631Z,34.82
2023-04-28T10:58:51.781Z,34.59
2023-04-28T11:01:24.697Z,35.53
2023-04-28T11:04:08.289Z,34.91
2023-04-28T11:06:40.273Z,34.28
2023-04-28T11:09:14.874Z,35.21
2023-04-28T11:12:02.226Z,35.49
2023-04-28T11:14:33.850Z,34.45
2023-04-28T11:17:07.177Z,35.28
2023-04-28T11:19:42.756Z,34.77
2023-04-28T11:22:19.911Z,34.68
2023-04-28T11:24:57.339Z,35.24
2023-04-28T11:27:27.026Z,34.10
2023-04-28T11:29:55.939Z,35.64
2023-04-28T11:32:32.391Z,37.69
2023-04-28T11:35:01.254Z,36.36
2023-04-28T11:37:29.469Z,36.38
2023-04-28T11:39:58.357Z,36.36
2023-04-28T11:42:29.391Z,35.43
2023-04-28T11:44:57.771Z,36.34
2023-04-28T11:47:33.595Z,35.41
2023-04-28T11:50:03.356Z,36.19
2023-04-28T11:52:32.115Z,37.22
2023-04-28T11:55:02.298Z,36.57
2023-04-28T11:57:31.416Z,36.96
2023-04-28T12:00:19.541Z,37.49
2023-04-28T12:02:48.632Z,35.74
2023-04-28T12:05:17.440Z,36.76
2023-04-28T12:07:46.771Z,36.47
2023-04-28T12:10:16.902Z,38.05
2023-04-28T12:12:52.352Z,37.22
2023-04-28T12:15:22.929Z,38.17
2023-04-28T12:18:16.356Z,36.73
2023-04-28T12:20:45.478Z,37.10
2023-04-28T12:23:13.698Z,37.08
2023-04-28T12:25:46.180Z,37.46
2023-04-28T12:28:15.375Z,37.27
2023-04-28T12:30:43.968Z,36.82
2023-04-28T12:33:29.160Z,37.53
2023-04-28T12:35:57.980Z,38.78
2023-04-28T12:38:26.652Z,38.27
2023-04-28T12:40:55.790Z,38.21
2023-04-28T12:43:25.766Z,38.02
2023-04-28T12:45:55.698Z,37.60
2023-04-28T12:48:25.682Z,37.24
2023-04-28T12:50:53.813Z,37.97
2023-04-28T12:53:21.917Z,38.02
2023-04-28T12:55:50.364Z,39.32
2023-04-28T12:58:18.609Z,38.12
2023-04-28T13:00:47.051Z,37.15
2023-04-28T13:03:15.949Z,37.80
2023-04-28T13:05:44.361Z,37.11
2023-04-28T13:08:13.993Z,37.09
2023-04-28T13:10:42.716Z,36.23
2023-04-28T13:13:11.051Z,38.67
2023-04-28T13:15:39.449Z,37.67
2023-04-28T13:18:08.164Z,36.59
2023-04-28T13:20:36.363Z,36.87
2023-04-28T13:23:04.488Z,38.51
2023-04-28T13:25:32.888Z,37.58
2023-04-28T13:28:01.327Z,38.00
2023-04-28T13:30:29.962Z,38.48
2023-04-28T13:32:59.066Z,37.87
2023-04-28T13:35:27.515Z,39.45
2023-04-28T13:38:01.750Z,37.70
2023-04-28T13:40:30.557Z,37.36
2023-04-28T13:42:58.793Z,38.07
2023-04-28T13:45:27.247Z,37.75
2023-04-28T13:47:55.841Z,37.89
2023-04-28T13:50:24.038Z,38.53
2023-04-28T13:52:53.149Z,39.18
2023-04-28T13:55:28.259Z,38.44
2023-04-28T13:57:57.224Z,38.96
2023-04-28T14:00:26.152Z,38.60
2023-04-28T14:02:55.246Z,39.24
2023-04-28T14:05:23.564Z,38.51
2023-04-28T14:07:54.266Z,38.69
2023-04-28T14:10:23.247Z,39.44
2023-04-28T14:12:51.926Z,39.51
2023-04-28T14:15:20.401Z,39.23
2023-04-28T14:17:48.810Z,38.91
2023-04-28T14:20:17.928Z,39.37
2023-04-28T14:22:46.237Z,38.74
2023-04-28T14:25:14.696Z,38.80
2023-04-28T14:27:42.902Z,38.44
2023-04-28T14:30:11.596Z,39.85
2023-04-28T14:32:41.510Z,38.61
2023-04-28T14:35:13.504Z,40.40
2023-04-28T14:37:43.064Z,38.76
2023-04-28T14:40:11.583Z,39.51
2023-04-28T14:42:39.928Z,39.51
2023-04-28T14:45:10.752Z,39.83
2023-04-28T14:47:40.309Z,40.08
2023-04-28T14:50:10.326Z,39.62
2023-04-28T14:52:39.140Z,40.26
2023-04-28T14:55:08.035Z,39.98
2023-04-28T14:57:37.714Z,39.43
2023-04-28T15:00:09.295Z,39.62
2023-04-28T15:02:38.247Z,40.18
2023-04-28T15:05:08.163Z,40.22
2023-04-28T15:07:36.729Z,40.12
2023-04-28T15:10:05.771Z,39.77
2023-04-28T15:12:34.515Z,40.18
2023-04-28T15:15:02.678Z,40.19
2023-04-28T15:17:31.254Z,41.50
2023-04-28T15:19:59.901Z,40.72
2023-04-28T15:22:28.048Z,41.83
2023-04-28T15:24:57.129Z,40.19
2023-04-28T15:27:25.555Z,40.67
2023-04-28T15:29:54.177Z,41.25
2023-04-28T15:32:23.515Z,41.45
2023-04-28T15:34:52.983Z,42.79
2023-04-28T15:37:41.657Z,41.25
2023-04-28T15:40:12.775Z,42.32
2023-04-28T15:42:49.050Z,41.72
2023-04-28T15:45:19.408Z,42.83
2023-04-28T15:47:50.605Z,41.98
2023-04-28T15:50:20.318Z,42.62
2023-04-28T15:52:50.121Z,42.33
2023-04-28T15:55:21.767Z,43.45
2023-04-28T15:57:51.338Z,43.07
2023-04-28T16:00:19.598Z,43.16
2023-04-28T16:02:48.619Z,42.81
2023-04-28T16:05:16.989Z,43.26
2023-04-28T16:07:45.419Z,43.70
2023-04-28T16:10:16.203Z,43.50
2023-04-28T16:12:44.615Z,43.69
2023-04-28T16:15:13.595Z,42.56
2023-04-28T16:17:42.460Z,43.27
2023-04-28T16:20:14.569Z,44.37
2023-04-28T16:22:43.480Z,43.56
2023-04-28T16:25:12.462Z,44.48
2023-04-28T16:27:41.746Z,44.89
2023-04-28T16:30:10.602Z,44.56
2023-04-28T16:32:41.305Z,44.66
2023-04-28T16:35:15.062Z,45.69
2023-04-28T16:37:44.436Z,44.06
2023-04-28T16:40:13.351Z,45.14
2023-04-28T16:42:42.234Z,46.57
2023-04-28T16:45:11.887Z,46.72
2023-04-28T16:47:46.347Z,45.68
2023-04-28T16:50:14.939Z,45.09
2023-04-28T16:52:43.508Z,46.08
2023-04-28T16:55:11.781Z,46.17
2023-04-28T16:57:40.078Z,46.73
2023-04-28T17:00:09.378Z,49.42
2023-04-28T17:02:38.280Z,47.59
2023-04-28T17:05:07.315Z,46.67
2023-04-28T17:07:35.842Z,47.17
2023-04-28T17:10:04.489Z,46.79
2023-04-28T17:12:32.820Z,46.83
2023-04-28T17:15:01.346Z,47.73
2023-04-28T17:17:29.898Z,47.78
2023-04-28T17:19:59.925Z,46.73
2023-04-28T17:22:31.020Z,47.89
2023-04-28T17:24:59.288Z,47.40
2023-04-28T17:27:27.384Z,48.19
2023-04-28T17:29:58.458Z,48.47
2023-04-28T17:32:27.380Z,50.71
2023-04-28T17:34:55.741Z,49.69
2023-04-28T17:37:24.204Z,49.02
2023-04-28T17:39:52.911Z,48.61
2023-04-28T17:42:21.590Z,50.00
2023-04-28T17:44:49.784Z,49.72
2023-04-28T17:47:18.095Z,50.19
2023-04-28T17:49:47.111Z,49.86
2023-04-28T17:52:15.669Z,51.10
2023-04-28T17:54:43.919Z,51.39
2023-04-28T17:57:13.185Z,52.33
2023-04-28T17:59:42.748Z,52.00
2023-04-28T18:02:11.968Z,52.58
2023-04-28T18:04:40.660Z,53.48
2023-04-28T18:07:08.828Z,51.94
2023-04-28T18:09:37.309Z,53.38
2023-04-28T18:12:07.024Z,55.50
2023-04-28T18:14:35.111Z,58.10
2023-04-28T18:17:03.356Z,58.52
2023-04-28T18:19:32.326Z,63.21
2023-04-28T18:22:00.607Z,64.18
2023-04-28T18:24:28.871Z,63.02
2023-04-28T18:26:57.602Z,67.57
2023-04-28T18:29:25.776Z,68.69
2023-04-28T18:31:55.676Z,70.79
2023-04-28T18:34:24.626Z,72.12
2023-04-28T18:36:53.234Z,72.02
2023-04-28T18:39:21.381Z,71.92
2023-04-28T18:41:50.108Z,74.18
2023-04-28T18:44:19.246Z,70.86
2023-04-28T18:46:47.761Z,70.14
2023-04-28T18:49:16.268Z,70.46
2023-04-28T18:51:44.422Z,68.01
2023-04-28T18:54:15.936Z,70.58
2023-04-28T18:56:44.888Z,70.43
2023-04-28T18:59:13.082Z,68.94
2023-04-28T19:01:41.498Z,68.12
2023-04-28T19:04:10.459Z,66.44
2023-04-28T19:06:39.686Z,66.64
2023-04-28T19:09:09.148Z,67.98
2023-04-28T19:11:39.571Z,68.55
2023-04-28T19:14:11.529Z,67.93
2023-04-28T19:16:40.586Z,66.98
2023-04-28T19:19:09.740Z,68.39
2023-04-28T19:21:42.403Z,68.19
2023-04-28T19:24:12.656Z,68.29
2023-04-28T19:26:40.991Z,67.98
2023-04-28T19:29:09.334Z,69.01
2023-04-28T19:31:38.886Z,69.78
2023-04-28T19:34:07.496Z,69.90
2023-04-28T19:36:36.365Z,71.03
2023-04-28T19:39:05.057Z,70.56
2023-04-28T19:41:35.988Z,71.07
2023-04-28T19:44:05.598Z,71.60
2023-04-28T19:46:34.273Z,73.45
2023-04-28T19:49:02.756Z,72.11
2023-04-28T19:51:31.571Z,73.71
2023-04-28T19:54:00.139Z,73.37
2023-04-28T19:56:28.593Z,76.20
2023-04-28T19:58:58.773Z,74.22
2023-04-28T20:01:27.445Z,74.04
2023-04-28T20:03:56.279Z,74.54
2023-04-28T20:06:24.744Z,74.19
2023-04-28T20:08:53.295Z,78.36
2023-04-28T20:11:22.195Z,77.85
2023-04-28T20:13:50.775Z,78.80
2023-04-28T20:16:20.441Z,77.07
2023-04-28T20:18:49.424Z,80.54
2023-04-28T20:21:18.240Z,82.49
2023-04-28T20:23:47.609Z,82.30
2023-04-28T20:26:16.566Z,75.91
2023-04-28T20:28:47.263Z,84.19
2023-04-28T20:31:15.841Z,81.10
2023-04-28T20:33:44.213Z,84.94
2023-04-28T20:36:13.096Z,88.02
2023-04-28T20:38:43.416Z,86.15
2023-04-28T20:41:12.144Z,82.68
2023-04-28T20:43:41.107Z,83.42
2023-04-28T20:46:10.786Z,83.35
2023-04-28T20:48:39.773Z,90.34
2023-04-28T20:51:08.171Z,90.96
2023-04-28T20:53:38.398Z,91.50
2023-04-28T20:56:06.808Z,91.23
2023-04-28T20:58:35.396Z,92.13
2023-04-28T21:01:03.939Z,91.89
2023-04-28T21:03:32.497Z,92.78
2023-04-28T21:06:00.685Z,92.31
2023-04-28T21:08:30.223Z,93.09
2023-04-28T21:10:58.575Z,95.02
2023-04-28T21:13:27.022Z,95.61
2023-04-28T21:15:56.169Z,97.57
2023-04-28T21:18:24.574Z,99.49
2023-04-28T21:20:54.747Z,98.15
2023-04-28T21:23:23.644Z,98.55
2023-04-28T21:25:52.354Z,99.13
2023-04-28T21:28:21.489Z,98.06
2023-04-28T21:30:52.776Z,99.33
2023-04-28T21:33:22.403Z,100.00
2023-04-28T21:35:51.085Z,100.00
2023-04-28T21:38:19.504Z,100.00
2023-04-28T21:40:48.843Z,100.00
2023-04-28T21:43:17.615Z,100.00
2023-04-28T21:45:46.109Z,100.00
2023-04-28T21:48:14.324Z,100.00
2023-04-28T21:50:42.773Z,100.00
2023-04-28T21:53:10.872Z,100.00
2023-04-28T21:55:39.934Z,100.00
2023-04-28T21:58:08.405Z,100.00
2023-04-28T22:00:39.811Z,100.00
2023-04-28T22:03:08.639Z,100.00
2023-04-28T22:05:37.165Z,100.00
2023-04-28T22:08:05.734Z,100.00
2023-04-28T22:10:35.032Z,100.00
2023-04-28T22:13:04.084Z,100.00
2023-04-28T22:15:32.955Z,100.00
2023-04-28T22:18:02.049Z,100.00
2023-04-28T22:20:30.362Z,100.00
2023-04-28T22:22:58.644Z,100.00
2023-04-28T22:25:27.239Z,100.00
2023-04-28T22:27:55.427Z,100.00
2023-04-28T22:30:25.777Z,100.00
2023-04-28T22:32:55.103Z,100.00
2023-04-28T22:35:23.774Z,100.00
2023-04-28T22:37:52.099Z,100.00
2023-04-28T22:40:20.890Z,100.00
2023-04-28T22:42:49.179Z,100.00
2023-04-28T22:45:17.214Z,100.00
2023-04-28T22:47:46.353Z,100.00
2023-04-28T22:50:14.626Z,100.00
2023-04-28T22:52:42.754Z,100.00
2023-04-28T22:55:12.161Z,100.00
2023-04-28T22:57:41.213Z,100.00
2023-04-28T23:00:10.147Z,100.00
2023-04-28T23:02:39.271Z,100.00
2023-04-28T23:05:07.769Z,100.00
2023-04-28T23:07:36.086Z,100.00
2023-04-28T23:10:05.525Z,100.00
2023-04-28T23:12:33.919Z,100.00
2023-04-28T23:15:02.611Z,100.00
2023-04-28T23:17:31.823Z,100.00
2023-04-28T23:19:59.968Z,100.00
2023-04-28T23:22:28.107Z,100.00
2023-04-28T23:24:56.701Z,100.00
2023-04-28T23:27:25.359Z,100.00
2023-04-28T23:29:53.627Z,100.00
2023-04-28T23:32:22.285Z,100.00
2023-04-28T23:34:50.783Z,100.00
2023-04-28T23:37:18.939Z,100.00
2023-04-28T23:39:47.962Z,100.00
2023-04-28T23:42:16.478Z,100.00
2023-04-28T23:44:44.725Z,100.00
2023-04-28T23:47:14.814Z,100.00
2023-04-28T23:49:43.115Z,100.00
2023-04-28T23:52:11.368Z,100.00
2023-04-28T23:54:40.102Z,100.00
2023-04-28T23:57:08.320Z,100.00
2023-04-28T23:59:36.850Z,100.00
